sensor_id;sensor_type;location;lat;lon;timestamp;pressure;altitude;pressure_sealevel;temperature;humidity
49945;BME280;35838;49.134;9.212;2023-08-21T05:34:59;100446.16;;;23.10;100.00
49945;BME280;35838;49.134;9.212;2023-08-21T05:36:34;100448.81;;;23.10;100.00
49945;BME280;35838;49.134;9.212;2023-08-21T05:38:05;100452.69;;;23.03;100.00
49945;BME280;35838;49.134;9.212;2023-08-21T05:39:38;100449.09;;;23.04;100.00
49945;BME280;35838;49.134;9.212;2023-08-21T05:41:09;100453.44;;;23.05;100.00
49945;BME280;35838;49.134;9.212;2023-08-21T05:42:43;100457.03;;;23.04;100.00
49945;BME280;35838;49.134;9.212;2023-08-21T05:44:14;100457.19;;;23.01;100.00
49945;BME280;35838;49.134;9.212;2023-08-21T05:45:48;100464.81;;;23.07;100.00
49945;BME280;35838;49.134;9.212;2023-08-21T05:47:19;100459.38;;;23.10;100.00
49945;BME280;35838;49.134;9.212;2023-08-21T05:48:54;100465.69;;;23.08;100.00
49945;BME280;35838;49.134;9.212;2023-08-21T05:50:28;100460.41;;;23.08;100.00
49945;BME280;35838;49.134;9.212;2023-08-21T05:52:01;100464.56;;;23.13;100.00
49945;BME280;35838;49.134;9.212;2023-08-21T05:53:33;100465.41;;;23.14;100.00
49945;BME280;35838;49.134;9.212;2023-08-21T05:55:06;100456.59;;;23.13;100.00
49945;BME280;35838;49.134;9.212;2023-08-21T05:56:37;100455.50;;;23.17;100.00
49945;BME280;35838;49.134;9.212;2023-08-21T05:58:11;100456.34;;;23.20;100.00
49945;BME280;35838;49.134;9.212;2023-08-21T05:59:43;100458.06;;;23.21;100.00
49945;BME280;35838;49.134;9.212;2023-08-21T06:01:17;100461.91;;;23.13;100.00
49945;BME280;35838;49.134;9.212;2023-08-21T06:02:48;100460.00;;;23.15;100.00
49945;BME280;35838;49.134;9.212;2023-08-21T06:04:22;100462.34;;;23.23;100.00
49945;BME280;35838;49.134;9.212;2023-08-21T06:05:56;100466.47;;;23.29;100.00
49945;BME280;35838;49.134;9.212;2023-08-21T06:07:29;100467.06;;;23.36;100.00
49945;BME280;35838;49.134;9.212;2023-08-21T06:09:03;100468.25;;;23.28;100.00
49945;BME280;35838;49.134;9.212;2023-08-21T06:10:34;100463.75;;;23.30;100.00
49945;BME280;35838;49.134;9.212;2023-08-21T06:12:08;100466.31;;;23.32;100.00
49945;BME280;35838;49.134;9.212;2023-08-21T06:13:39;100468.69;;;23.38;100.00
49945;BME280;35838;49.134;9.212;2023-08-21T06:15:13;100474.59;;;23.43;100.00
49945;BME280;35838;49.134;9.212;2023-08-21T06:16:44;100465.66;;;23.46;100.00
49945;BME280;35838;49.134;9.212;2023-08-21T06:18:17;100473.38;;;23.51;100.00
49945;BME280;35838;49.134;9.212;2023-08-21T06:19:48;100469.72;;;23.53;100.00
49945;BME280;35838;49.134;9.212;2023-08-21T06:21:25;100471.41;;;23.54;100.00
49945;BME280;35838;49.134;9.212;2023-08-21T06:22:56;100475.97;;;23.52;100.00
49945;BME280;35838;49.134;9.212;2023-08-21T06:24:29;100473.44;;;23.49;100.00
49945;BME280;35838;49.134;9.212;2023-08-21T06:26:00;100479.59;;;23.50;100.00
49945;BME280;35838;49.134;9.212;2023-08-21T06:27:35;100477.72;;;23.52;100.00
49945;BME280;35838;49.134;9.212;2023-08-21T06:29:06;100478.38;;;23.57;100.00
49945;BME280;35838;49.134;9.212;2023-08-21T06:30:40;100476.72;;;23.54;100.00
49945;BME280;35838;49.134;9.212;2023-08-21T06:32:11;100481.88;;;23.57;100.00
49945;BME280;35838;49.134;9.212;2023-08-21T06:33:44;100478.38;;;23.57;100.00
49945;BME280;35838;49.134;9.212;2023-08-21T06:35:15;100472.78;;;23.63;100.00
49945;BME280;35838;49.134;9.212;2023-08-21T06:36:52;100480.16;;;23.56;100.00
49945;BME280;35838;49.134;9.212;2023-08-21T06:38:26;100484.16;;;23.65;100.00
49945;BME280;35838;49.134;9.212;2023-08-21T06:39:57;100475.75;;;23.74;100.00
49945;BME280;35838;49.134;9.212;2023-08-21T06:41:31;100478.09;;;23.81;100.00
49945;BME280;35838;49.134;9.212;2023-08-21T06:43:04;100468.03;;;23.87;100.00
49945;BME280;35838;49.134;9.212;2023-08-21T06:44:36;100471.44;;;23.89;100.00
49945;BME280;35838;49.134;9.212;2023-08-21T06:46:10;100471.19;;;23.96;100.00
49945;BME280;35838;49.134;9.212;2023-08-21T06:47:41;100470.03;;;24.01;100.00
49945;BME280;35838;49.134;9.212;2023-08-21T06:49:15;100466.72;;;23.96;100.00
49945;BME280;35838;49.134;9.212;2023-08-21T06:50:46;100466.16;;;23.89;100.00
49945;BME280;35838;49.134;9.212;2023-08-21T06:52:22;100474.63;;;23.98;100.00
49945;BME280;35838;49.134;9.212;2023-08-21T06:53:53;100481.13;;;24.08;100.00
49945;BME280;35838;49.134;9.212;2023-08-21T06:55:27;100470.38;;;24.11;100.00
49945;BME280;35838;49.134;9.212;2023-08-21T06:57:00;100473.72;;;24.15;100.00
49945;BME280;35838;49.134;9.212;2023-08-21T06:58:34;100472.72;;;24.17;100.00
49945;BME280;35838;49.134;9.212;2023-08-21T07:00:08;100476.06;;;24.21;100.00
49945;BME280;35838;49.134;9.212;2023-08-21T07:01:40;100469.22;;;24.17;100.00
49945;BME280;35838;49.134;9.212;2023-08-21T07:03:13;100473.50;;;24.19;100.00
49945;BME280;35838;49.134;9.212;2023-08-21T07:04:45;100476.00;;;24.22;100.00
49945;BME280;35838;49.134;9.212;2023-08-21T07:06:18;100479.16;;;24.29;100.00
49945;BME280;35838;49.134;9.212;2023-08-21T07:07:54;100477.84;;;24.38;100.00
49945;BME280;35838;49.134;9.212;2023-08-21T07:09:25;100475.09;;;24.39;100.00
49945;BME280;35838;49.134;9.212;2023-08-21T07:11:01;100476.97;;;24.37;100.00
49945;BME280;35838;49.134;9.212;2023-08-21T07:12:32;100470.41;;;24.45;100.00
49945;BME280;35838;49.134;9.212;2023-08-21T07:14:06;100480.94;;;24.46;100.00
49945;BME280;35838;49.134;9.212;2023-08-21T07:15:39;100476.16;;;24.53;100.00
49945;BME280;35838;49.134;9.212;2023-08-21T07:17:13;100474.13;;;24.58;100.00
49945;BME280;35838;49.134;9.212;2023-08-21T07:18:44;100473.09;;;24.61;100.00
49945;BME280;35838;49.134;9.212;2023-08-21T07:20:18;100464.38;;;24.59;100.00
49945;BME280;35838;49.134;9.212;2023-08-21T07:21:49;100466.69;;;24.65;100.00
49945;BME280;35838;49.134;9.212;2023-08-21T07:23:25;100464.50;;;24.73;100.00
49945;BME280;35838;49.134;9.212;2023-08-21T07:24:59;100467.06;;;24.75;100.00
49945;BME280;35838;49.134;9.212;2023-08-21T07:26:31;100462.38;;;24.80;100.00
49945;BME280;35838;49.134;9.212;2023-08-21T07:28:04;100462.78;;;24.72;100.00
49945;BME280;35838;49.134;9.212;2023-08-21T07:29:35;100463.47;;;24.76;100.00
49945;BME280;35838;49.134;9.212;2023-08-21T07:31:09;100470.25;;;24.81;100.00
49945;BME280;35838;49.134;9.212;2023-08-21T07:32:43;100467.84;;;24.77;100.00
49945;BME280;35838;49.134;9.212;2023-08-21T07:34:14;100465.72;;;24.83;100.00
49945;BME280;35838;49.134;9.212;2023-08-21T07:35:47;100467.19;;;24.89;100.00
49945;BME280;35838;49.134;9.212;2023-08-21T07:37:27;100468.56;;;24.96;100.00
49945;BME280;35838;49.134;9.212;2023-08-21T07:39:03;100464.09;;;24.97;100.00
49945;BME280;35838;49.134;9.212;2023-08-21T07:40:37;100454.16;;;25.00;100.00
49945;BME280;35838;49.134;9.212;2023-08-21T07:42:11;100458.47;;;25.03;100.00
49945;BME280;35838;49.134;9.212;2023-08-21T07:43:43;100459.03;;;25.08;100.00
49945;BME280;35838;49.134;9.212;2023-08-21T07:45:16;100457.22;;;25.09;100.00
49945;BME280;35838;49.134;9.212;2023-08-21T07:46:47;100461.97;;;25.19;100.00
49945;BME280;35838;49.134;9.212;2023-08-21T07:48:21;100460.91;;;25.22;100.00
49945;BME280;35838;49.134;9.212;2023-08-21T07:49:52;100462.53;;;25.25;100.00
49945;BME280;35838;49.134;9.212;2023-08-21T07:51:26;100468.78;;;25.24;100.00
49945;BME280;35838;49.134;9.212;2023-08-21T07:52:59;100465.09;;;25.26;100.00
49945;BME280;35838;49.134;9.212;2023-08-21T07:54:33;100466.28;;;25.37;100.00
49945;BME280;35838;49.134;9.212;2023-08-21T07:56:06;100464.97;;;25.45;100.00
49945;BME280;35838;49.134;9.212;2023-08-21T07:57:37;100468.88;;;25.54;100.00
49945;BME280;35838;49.134;9.212;2023-08-21T07:59:11;100465.78;;;25.62;100.00
49945;BME280;35838;49.134;9.212;2023-08-21T08:00:42;100463.63;;;25.69;100.00
49945;BME280;35838;49.134;9.212;2023-08-21T08:02:16;100458.72;;;25.77;100.00
49945;BME280;35838;49.134;9.212;2023-08-21T08:03:49;100453.03;;;25.83;100.00
49945;BME280;35838;49.134;9.212;2023-08-21T08:05:23;100455.50;;;25.86;100.00
49945;BME280;35838;49.134;9.212;2023-08-21T08:06:54;100456.06;;;25.91;100.00
49945;BME280;35838;49.134;9.212;2023-08-21T08:08:28;100452.47;;;25.92;100.00
49945;BME280;35838;49.134;9.212;2023-08-21T08:10:05;100449.25;;;25.87;100.00
49945;BME280;35838;49.134;9.212;2023-08-21T08:11:36;100456.22;;;25.74;100.00
49945;BME280;35838;49.134;9.212;2023-08-21T08:13:10;100446.16;;;25.79;100.00
49945;BME280;35838;49.134;9.212;2023-08-21T08:14:41;100449.41;;;25.84;100.00
49945;BME280;35838;49.134;9.212;2023-08-21T08:16:14;100445.44;;;25.91;100.00
49945;BME280;35838;49.134;9.212;2023-08-21T08:17:47;100448.50;;;26.00;100.00
49945;BME280;35838;49.134;9.212;2023-08-21T08:19:22;100454.19;;;26.08;100.00
49945;BME280;35838;49.134;9.212;2023-08-21T08:20:56;100451.97;;;26.16;100.00
49945;BME280;35838;49.134;9.212;2023-08-21T08:22:27;100435.72;;;26.21;100.00
49945;BME280;35838;49.134;9.212;2023-08-21T08:24:01;100438.75;;;26.29;100.00
49945;BME280;35838;49.134;9.212;2023-08-21T08:25:37;100433.75;;;26.39;100.00
49945;BME280;35838;49.134;9.212;2023-08-21T08:27:08;100435.06;;;26.46;100.00
49945;BME280;35838;49.134;9.212;2023-08-21T08:28:51;100427.63;;;26.51;100.00
49945;BME280;35838;49.134;9.212;2023-08-21T08:30:31;100437.53;;;26.64;100.00
49945;BME280;35838;49.134;9.212;2023-08-21T08:32:03;100438.66;;;26.74;100.00
49945;BME280;35838;49.134;9.212;2023-08-21T08:33:36;100447.22;;;26.79;100.00
49945;BME280;35838;49.134;9.212;2023-08-21T08:35:07;100446.81;;;26.85;100.00
49945;BME280;35838;49.134;9.212;2023-08-21T08:36:41;100442.06;;;26.90;100.00
49945;BME280;35838;49.134;9.212;2023-08-21T08:38:15;100436.34;;;26.97;100.00
49945;BME280;35838;49.134;9.212;2023-08-21T08:39:46;100434.63;;;26.96;100.00
49945;BME280;35838;49.134;9.212;2023-08-21T08:41:24;100426.09;;;26.90;100.00
49945;BME280;35838;49.134;9.212;2023-08-21T08:42:55;100420.47;;;26.95;100.00
49945;BME280;35838;49.134;9.212;2023-08-21T08:44:29;100424.44;;;27.02;100.00
49945;BME280;35838;49.134;9.212;2023-08-21T08:46:03;100428.72;;;27.05;100.00
49945;BME280;35838;49.134;9.212;2023-08-21T08:47:35;100432.69;;;27.12;100.00
49945;BME280;35838;49.134;9.212;2023-08-21T08:49:08;100419.06;;;27.17;100.00
49945;BME280;35838;49.134;9.212;2023-08-21T08:50:40;100415.91;;;27.25;100.00
49945;BME280;35838;49.134;9.212;2023-08-21T08:52:13;100411.88;;;27.32;100.00
49945;BME280;35838;49.134;9.212;2023-08-21T08:53:45;100415.81;;;27.39;100.00
49945;BME280;35838;49.134;9.212;2023-08-21T08:55:20;100415.81;;;27.39;100.00
49945;BME280;35838;49.134;9.212;2023-08-21T08:56:54;100407.47;;;27.45;100.00
49945;BME280;35838;49.134;9.212;2023-08-21T08:58:28;100406.63;;;27.58;100.00
49945;BME280;35838;49.134;9.212;2023-08-21T08:59:59;100403.63;;;27.49;100.00
49945;BME280;35838;49.134;9.212;2023-08-21T09:01:34;100409.53;;;27.55;100.00
49945;BME280;35838;49.134;9.212;2023-08-21T09:03:05;100406.63;;;27.58;100.00
49945;BME280;35838;49.134;9.212;2023-08-21T09:04:39;100409.84;;;27.63;100.00
49945;BME280;35838;49.134;9.212;2023-08-21T09:06:10;100406.44;;;27.61;100.00
49945;BME280;35838;49.134;9.212;2023-08-21T09:07:44;100406.13;;;27.65;100.00
49945;BME280;35838;49.134;9.212;2023-08-21T09:09:15;100401.44;;;27.69;100.00
49945;BME280;35838;49.134;9.212;2023-08-21T09:10:48;100402.59;;;27.65;100.00
49945;BME280;35838;49.134;9.212;2023-08-21T09:12:25;100401.09;;;27.61;100.00
49945;BME280;35838;49.134;9.212;2023-08-21T09:13:56;100400.16;;;27.62;100.00
49945;BME280;35838;49.134;9.212;2023-08-21T09:15:29;100398.78;;;27.69;100.00
49945;BME280;35838;49.134;9.212;2023-08-21T09:17:01;100404.22;;;27.80;100.00
49945;BME280;35838;49.134;9.212;2023-08-21T09:18:34;100416.25;;;27.99;100.00
49945;BME280;35838;49.134;9.212;2023-08-21T09:20:10;100409.97;;;28.00;100.00
49945;BME280;35838;49.134;9.212;2023-08-21T09:21:41;100396.44;;;28.03;100.00
49945;BME280;35838;49.134;9.212;2023-08-21T09:23:16;100398.66;;;27.96;100.00
49945;BME280;35838;49.134;9.212;2023-08-21T09:25:00;100395.59;;;28.03;100.00
49945;BME280;35838;49.134;9.212;2023-08-21T09:26:36;100386.00;;;28.13;100.00
49945;BME280;35838;49.134;9.212;2023-08-21T09:28:10;100386.09;;;28.11;100.00
49945;BME280;35838;49.134;9.212;2023-08-21T09:29:44;100383.88;;;28.18;100.00
49945;BME280;35838;49.134;9.212;2023-08-21T09:31:16;100385.56;;;28.19;100.00
49945;BME280;35838;49.134;9.212;2023-08-21T09:32:55;100387.91;;;28.24;100.00
49945;BME280;35838;49.134;9.212;2023-08-21T09:34:26;100383.84;;;28.31;100.00
49945;BME280;35838;49.134;9.212;2023-08-21T09:36:06;100384.28;;;28.38;100.00
49945;BME280;35838;49.134;9.212;2023-08-21T09:37:39;100393.88;;;28.40;100.00
49945;BME280;35838;49.134;9.212;2023-08-21T09:39:14;100374.63;;;28.48;100.00
49945;BME280;35838;49.134;9.212;2023-08-21T09:40:50;100381.25;;;28.55;100.00
49945;BME280;35838;49.134;9.212;2023-08-21T09:42:24;100382.59;;;28.61;100.00
49945;BME280;35838;49.134;9.212;2023-08-21T09:44:00;100384.41;;;28.73;100.00
49945;BME280;35838;49.134;9.212;2023-08-21T09:45:34;100385.44;;;28.84;100.00
49945;BME280;35838;49.134;9.212;2023-08-21T09:47:07;100386.19;;;28.86;100.00
49945;BME280;35838;49.134;9.212;2023-08-21T09:48:41;100380.50;;;28.90;100.00
49945;BME280;35838;49.134;9.212;2023-08-21T09:50:16;100371.75;;;28.88;100.00
49945;BME280;35838;49.134;9.212;2023-08-21T09:51:48;100371.50;;;28.91;100.00
49945;BME280;35838;49.134;9.212;2023-08-21T09:53:22;100376.63;;;28.95;100.00
49945;BME280;35838;49.134;9.212;2023-08-21T09:54:54;100374.84;;;28.95;100.00
49945;BME280;35838;49.134;9.212;2023-08-21T09:56:28;100376.16;;;29.01;100.00
49945;BME280;35838;49.134;9.212;2023-08-21T09:58:02;100370.47;;;29.05;100.00
49945;BME280;35838;49.134;9.212;2023-08-21T09:59:36;100367.59;;;29.08;100.00
49945;BME280;35838;49.134;9.212;2023-08-21T10:01:10;100373.81;;;29.20;100.00
49945;BME280;35838;49.134;9.212;2023-08-21T10:02:46;100364.97;;;29.20;100.00
49945;BME280;35838;49.134;9.212;2023-08-21T10:04:21;100356.06;;;29.08;100.00
49945;BME280;35838;49.134;9.212;2023-08-21T10:05:56;100357.88;;;29.07;100.00
49945;BME280;35838;49.134;9.212;2023-08-21T10:07:31;100362.66;;;29.15;100.00
49945;BME280;35838;49.134;9.212;2023-08-21T10:09:02;100355.38;;;29.17;100.00
49945;BME280;35838;49.134;9.212;2023-08-21T10:10:38;100353.19;;;29.22;100.00
49945;BME280;35838;49.134;9.212;2023-08-21T10:12:09;100359.38;;;29.23;100.00
49945;BME280;35838;49.134;9.212;2023-08-21T10:13:44;100353.94;;;29.24;100.00
49945;BME280;35838;49.134;9.212;2023-08-21T10:15:18;100347.81;;;29.35;100.00
49945;BME280;35838;49.134;9.212;2023-08-21T10:16:52;100345.63;;;29.41;100.00
49945;BME280;35838;49.134;9.212;2023-08-21T10:18:24;100342.59;;;29.45;100.00
49945;BME280;35838;49.134;9.212;2023-08-21T10:20:02;100339.81;;;29.47;100.00
49945;BME280;35838;49.134;9.212;2023-08-21T10:21:34;100339.56;;;29.50;100.00
49945;BME280;35838;49.134;9.212;2023-08-21T10:23:08;100332.72;;;29.34;100.00
49945;BME280;35838;49.134;9.212;2023-08-21T10:24:39;100338.34;;;29.43;100.00
49945;BME280;35838;49.134;9.212;2023-08-21T10:26:13;100328.88;;;29.50;100.00
49945;BME280;35838;49.134;9.212;2023-08-21T10:27:44;100334.84;;;29.65;100.00
49945;BME280;35838;49.134;9.212;2023-08-21T10:29:18;100325.28;;;29.74;100.00
49945;BME280;35838;49.134;9.212;2023-08-21T10:30:52;100324.41;;;29.73;100.00
49945;BME280;35838;49.134;9.212;2023-08-21T10:32:27;100326.13;;;29.74;100.00
49945;BME280;35838;49.134;9.212;2023-08-21T10:33:58;100320.03;;;29.83;100.00
49945;BME280;35838;49.134;9.212;2023-08-21T10:35:32;100317.63;;;29.92;100.00
49945;BME280;35838;49.134;9.212;2023-08-21T10:37:08;100309.72;;;29.90;100.00
49945;BME280;35838;49.134;9.212;2023-08-21T10:40:29;100320.19;;;29.93;100.00
49945;BME280;35838;49.134;9.212;2023-08-21T10:42:03;100321.91;;;30.06;100.00
49945;BME280;35838;49.134;9.212;2023-08-21T10:43:38;100318.72;;;30.12;100.00
49945;BME280;35838;49.134;9.212;2023-08-21T10:45:14;100316.78;;;30.14;100.00
49945;BME280;35838;49.134;9.212;2023-08-21T10:46:52;100314.84;;;30.16;100.00
49945;BME280;35838;49.134;9.212;2023-08-21T10:48:26;100310.31;;;30.16;100.00
49945;BME280;35838;49.134;9.212;2023-08-21T10:50:00;100310.22;;;30.18;100.00
49945;BME280;35838;49.134;9.212;2023-08-21T10:51:31;100306.81;;;30.16;100.00
49945;BME280;35838;49.134;9.212;2023-08-21T10:53:05;100302.53;;;30.25;100.00
49945;BME280;35838;49.134;9.212;2023-08-21T10:54:46;100304.13;;;30.27;100.00
49945;BME280;35838;49.134;9.212;2023-08-21T10:56:20;100315.31;;;30.32;100.00
49945;BME280;35838;49.134;9.212;2023-08-21T10:57:51;100306.75;;;30.50;100.00
49945;BME280;35838;49.134;9.212;2023-08-21T10:59:25;100306.00;;;30.48;100.00
49945;BME280;35838;49.134;9.212;2023-08-21T11:00:56;100309.44;;;30.61;100.00
49945;BME280;35838;49.134;9.212;2023-08-21T11:02:32;100302.88;;;30.54;100.00
49945;BME280;35838;49.134;9.212;2023-08-21T11:04:03;100297.16;;;30.47;100.00
49945;BME280;35838;49.134;9.212;2023-08-21T11:05:37;100299.94;;;30.46;100.00
49945;BME280;35838;49.134;9.212;2023-08-21T11:07:11;100301.91;;;30.44;100.00
49945;BME280;35838;49.134;9.212;2023-08-21T11:08:42;100303.00;;;30.41;100.00
49945;BME280;35838;49.134;9.212;2023-08-21T11:10:16;100301.19;;;30.53;100.00
49945;BME280;35838;49.134;9.212;2023-08-21T11:11:48;100300.88;;;30.68;100.00
49945;BME280;35838;49.134;9.212;2023-08-21T11:13:23;100297.22;;;30.69;100.00
49945;BME280;35838;49.134;9.212;2023-08-21T11:14:56;100305.50;;;30.66;100.00
49945;BME280;35838;49.134;9.212;2023-08-21T11:16:27;100297.00;;;30.60;100.00
49945;BME280;35838;49.134;9.212;2023-08-21T11:18:03;100297.00;;;30.60;100.00
49945;BME280;35838;49.134;9.212;2023-08-21T11:19:37;100294.47;;;30.59;100.00
49945;BME280;35838;49.134;9.212;2023-08-21T11:21:09;100292.63;;;30.59;100.00
49945;BME280;35838;49.134;9.212;2023-08-21T11:22:43;100300.13;;;30.77;100.00
49945;BME280;35838;49.134;9.212;2023-08-21T11:24:17;100293.75;;;30.89;100.00
49945;BME280;35838;49.134;9.212;2023-08-21T11:25:48;100294.41;;;31.03;100.00
49945;BME280;35838;49.134;9.212;2023-08-21T11:27:21;100294.84;;;31.08;100.00
49945;BME280;35838;49.134;9.212;2023-08-21T11:28:52;100294.63;;;31.11;100.00
49945;BME280;35838;49.134;9.212;2023-08-21T11:30:26;100291.94;;;31.11;100.00
49945;BME280;35838;49.134;9.212;2023-08-21T11:31:57;100287.31;;;31.13;100.00
49945;BME280;35838;49.134;9.212;2023-08-21T11:33:33;100293.59;;;31.23;100.00
49945;BME280;35838;49.134;9.212;2023-08-21T11:36:43;100295.50;;;31.33;100.00
49945;BME280;35838;49.134;9.212;2023-08-21T11:38:17;100292.28;;;31.39;100.00
49945;BME280;35838;49.134;9.212;2023-08-21T11:39:51;100292.31;;;31.49;100.00
49945;BME280;35838;49.134;9.212;2023-08-21T11:41:23;100283.88;;;31.53;100.00
49945;BME280;35838;49.134;9.212;2023-08-21T11:42:59;100284.63;;;31.34;100.00
49945;BME280;35838;49.134;9.212;2023-08-21T11:44:31;100285.00;;;31.51;100.00
49945;BME280;35838;49.134;9.212;2023-08-21T11:46:04;100282.91;;;31.54;100.00
49945;BME280;35838;49.134;9.212;2023-08-21T11:47:39;100280.50;;;31.51;100.00
49945;BME280;35838;49.134;9.212;2023-08-21T11:49:13;100288.06;;;31.46;100.00
49945;BME280;35838;49.134;9.212;2023-08-21T11:50:47;100283.19;;;31.51;100.00
49945;BME280;35838;49.134;9.212;2023-08-21T11:52:19;100290.53;;;31.59;100.00
49945;BME280;35838;49.134;9.212;2023-08-21T11:53:53;100291.53;;;31.58;100.00
49945;BME280;35838;49.134;9.212;2023-08-21T11:55:24;100285.91;;;31.61;100.00
49945;BME280;35838;49.134;9.212;2023-08-21T11:56:57;100288.44;;;31.63;100.00
49945;BME280;35838;49.134;9.212;2023-08-21T11:58:29;100282.59;;;31.69;100.00
49945;BME280;35838;49.134;9.212;2023-08-21T12:00:03;100288.81;;;31.79;100.00
49945;BME280;35838;49.134;9.212;2023-08-21T12:01:38;100285.22;;;31.90;100.00
49945;BME280;35838;49.134;9.212;2023-08-21T12:03:09;100286.06;;;31.91;100.00
49945;BME280;35838;49.134;9.212;2023-08-21T12:04:46;100280.53;;;31.82;100.00
49945;BME280;35838;49.134;9.212;2023-08-21T12:06:22;100284.19;;;31.60;100.00
49945;BME280;35838;49.134;9.212;2023-08-21T12:07:56;100284.72;;;31.75;100.00
49945;BME280;35838;49.134;9.212;2023-08-21T12:09:27;100287.72;;;31.82;100.00
49945;BME280;35838;49.134;9.212;2023-08-21T12:11:01;100279.00;;;31.90;100.00
49945;BME280;35838;49.134;9.212;2023-08-21T12:12:32;100280.94;;;31.87;100.00
49945;BME280;35838;49.134;9.212;2023-08-21T12:14:06;100285.78;;;31.94;100.00
49945;BME280;35838;49.134;9.212;2023-08-21T12:15:37;100279.63;;;32.03;100.00
49945;BME280;35838;49.134;9.212;2023-08-21T12:17:10;100276.47;;;31.98;100.00
49945;BME280;35838;49.134;9.212;2023-08-21T12:18:44;100275.53;;;32.09;100.00
49945;BME280;35838;49.134;9.212;2023-08-21T12:20:17;100271.44;;;32.14;100.00
49945;BME280;35838;49.134;9.212;2023-08-21T12:21:51;100272.34;;;32.25;100.00
49945;BME280;35838;49.134;9.212;2023-08-21T12:23:22;100272.34;;;32.25;100.00
49945;BME280;35838;49.134;9.212;2023-08-21T12:24:56;100272.22;;;32.26;100.00
49945;BME280;35838;49.134;9.212;2023-08-21T12:26:29;100272.06;;;32.28;99.73
49945;BME280;35838;49.134;9.212;2023-08-21T12:28:00;100268.94;;;32.23;98.73
49945;BME280;35838;49.134;9.212;2023-08-21T12:29:34;100272.88;;;32.18;100.00
49945;BME280;35838;49.134;9.212;2023-08-21T12:31:05;100275.09;;;32.13;100.00
49945;BME280;35838;49.134;9.212;2023-08-21T12:32:39;100266.34;;;32.11;100.00
49945;BME280;35838;49.134;9.212;2023-08-21T12:34:11;100262.13;;;32.18;100.00
49945;BME280;35838;49.134;9.212;2023-08-21T12:35:47;100260.44;;;32.17;100.00
49945;BME280;35838;49.134;9.212;2023-08-21T12:37:21;100267.69;;;31.96;100.00
49945;BME280;35838;49.134;9.212;2023-08-21T12:38:52;100260.09;;;32.01;100.00
49945;BME280;35838;49.134;9.212;2023-08-21T12:40:25;100262.94;;;31.99;100.00
49945;BME280;35838;49.134;9.212;2023-08-21T12:41:59;100260.09;;;32.01;100.00
49945;BME280;35838;49.134;9.212;2023-08-21T12:43:30;100257.41;;;32.01;100.00
49945;BME280;35838;49.134;9.212;2023-08-21T12:45:04;100255.47;;;32.13;100.00
49945;BME280;35838;49.134;9.212;2023-08-21T12:46:38;100258.47;;;32.19;100.00
49945;BME280;35838;49.134;9.212;2023-08-21T12:48:09;100256.50;;;32.22;100.00
49945;BME280;35838;49.134;9.212;2023-08-21T12:49:43;100254.56;;;32.33;100.00
49945;BME280;35838;49.134;9.212;2023-08-21T12:51:16;100256.41;;;32.43;100.00
49945;BME280;35838;49.134;9.212;2023-08-21T12:52:50;100252.56;;;32.35;100.00
49945;BME280;35838;49.134;9.212;2023-08-21T12:54:21;100251.72;;;32.45;100.00
49945;BME280;35838;49.134;9.212;2023-08-21T12:55:55;100249.63;;;32.48;100.00
49945;BME280;35838;49.134;9.212;2023-08-21T12:57:26;100242.69;;;32.36;100.00
49945;BME280;35838;49.134;9.212;2023-08-21T12:58:59;100240.97;;;32.35;100.00
49945;BME280;35838;49.134;9.212;2023-08-21T13:00:33;100248.78;;;32.38;100.00
49945;BME280;35838;49.134;9.212;2023-08-21T13:02:04;100238.88;;;32.48;100.00
49945;BME280;35838;49.134;9.212;2023-08-21T13:03:38;100240.59;;;32.59;100.00
49945;BME280;35838;49.134;9.212;2023-08-21T13:05:09;100235.50;;;32.46;100.00
49945;BME280;35838;49.134;9.212;2023-08-21T13:06:45;100240.28;;;32.62;100.00
49945;BME280;35838;49.134;9.212;2023-08-21T13:08:19;100242.41;;;32.59;100.00
49945;BME280;35838;49.134;9.212;2023-08-21T13:09:50;100244.09;;;32.40;100.00
49945;BME280;35838;49.134;9.212;2023-08-21T13:11:23;100236.53;;;32.14;100.00
49945;BME280;35838;49.134;9.212;2023-08-21T13:12:55;100233.13;;;32.02;100.00
49945;BME280;35838;49.134;9.212;2023-08-21T13:14:28;100236.06;;;31.90;100.00
49945;BME280;35838;49.134;9.212;2023-08-21T13:16:02;100229.53;;;31.82;100.00
49945;BME280;35838;49.134;9.212;2023-08-21T13:17:34;100229.69;;;31.81;100.00
49945;BME280;35838;49.134;9.212;2023-08-21T13:19:07;100231.66;;;31.79;100.00
49945;BME280;35838;49.134;9.212;2023-08-21T13:20:38;100243.38;;;31.87;100.00
49945;BME280;35838;49.134;9.212;2023-08-21T13:22:16;100226.13;;;31.80;100.00
49945;BME280;35838;49.134;9.212;2023-08-21T13:23:47;100228.16;;;31.88;100.00
49945;BME280;35838;49.134;9.212;2023-08-21T13:25:22;100233.75;;;31.75;100.00
49945;BME280;35838;49.134;9.212;2023-08-21T13:26:54;100226.25;;;31.69;100.00
49945;BME280;35838;49.134;9.212;2023-08-21T13:28:27;100224.06;;;31.63;100.00
49945;BME280;35838;49.134;9.212;2023-08-21T13:29:58;100228.03;;;31.59;100.00
49945;BME280;35838;49.134;9.212;2023-08-21T13:31:32;100222.91;;;31.55;100.00
49945;BME280;35838;49.134;9.212;2023-08-21T13:33:06;100230.25;;;31.53;100.00
49945;BME280;35838;49.134;9.212;2023-08-21T13:34:37;100231.41;;;31.61;100.00
49945;BME280;35838;49.134;9.212;2023-08-21T13:36:11;100229.94;;;31.78;100.00
49945;BME280;35838;49.134;9.212;2023-08-21T13:37:47;100217.81;;;31.74;100.00
49945;BME280;35838;49.134;9.212;2023-08-21T13:39:21;100222.72;;;31.68;100.00